createdAt,value
2023-05-15T00:00:15.391Z,31.10
2023-05-15T00:02:44.814Z,14.87
2023-05-15T00:05:13.943Z,31.27
2023-05-15T00:07:43.757Z,27.63
2023-05-15T00:10:12.133Z,16.20
2023-05-15T00:12:40.373Z,27.73
2023-05-15T00:15:10.632Z,38.80
2023-05-15T00:17:38.937Z,29.87
2023-05-15T00:20:08.852Z,39.17
2023-05-15T00:22:37.103Z,29.80
2023-05-15T00:25:07.155Z,28.87
2023-05-15T00:27:35.387Z,40.23
2023-05-15T00:30:03.683Z,38.83
2023-05-15T00:32:32.095Z,30.63
2023-05-15T00:35:00.302Z,28.97
2023-05-15T00:37:28.552Z,25.60
2023-05-15T00:39:56.813Z,22.30
2023-05-15T00:42:26.790Z,35.37
2023-05-15T00:44:55.641Z,24.97
2023-05-15T00:47:24.164Z,37.43
2023-05-15T00:49:52.749Z,39.67
2023-05-15T00:52:21.848Z,22.37
2023-05-15T00:54:50.100Z,23.53
2023-05-15T00:57:19.357Z,40.43
2023-05-15T00:59:49.642Z,44.53
2023-05-15T01:02:19.262Z,31.27
2023-05-15T01:04:47.447Z,31.13
2023-05-15T01:07:15.843Z,23.10
2023-05-15T01:09:44.686Z,35.37
2023-05-15T01:12:13.427Z,41.37
2023-05-15T01:17:32.891Z,43.10
2023-05-15T01:20:01.720Z,39.03
2023-05-15T01:22:36.341Z,42.13
2023-05-15T01:25:22.642Z,40.97
2023-05-15T01:27:53.241Z,52.03
2023-05-15T01:30:24.654Z,44.80
2023-05-15T01:32:56.082Z,53.73
2023-05-15T01:35:27.170Z,53.67
2023-05-15T01:38:00.981Z,49.63
2023-05-15T01:40:29.850Z,53.63
2023-05-15T01:43:02.409Z,53.87
2023-05-15T01:45:30.622Z,58.93
2023-05-15T01:48:00.602Z,58.60
2023-05-15T01:50:29.683Z,38.23
2023-05-15T01:53:00.252Z,49.13
2023-05-15T01:55:28.869Z,57.37
2023-05-15T01:57:57.367Z,54.97
2023-05-15T02:00:27.211Z,45.57
2023-05-15T02:02:55.631Z,60.07
2023-05-15T02:05:24.376Z,55.23
2023-05-15T02:07:53.214Z,47.07
2023-05-15T02:10:21.845Z,36.97
2023-05-15T02:12:51.162Z,54.00
2023-05-15T02:15:19.927Z,42.13
2023-05-15T02:17:49.621Z,38.97
2023-05-15T02:20:18.034Z,56.43
2023-05-15T02:22:46.204Z,49.97
2023-05-15T02:25:14.383Z,47.13
2023-05-15T02:27:45.735Z,44.53
2023-05-15T02:30:19.359Z,53.40
2023-05-15T02:32:56.369Z,33.90
2023-05-15T02:35:28.616Z,35.37
2023-05-15T02:37:58.488Z,54.10
2023-05-15T02:40:27.360Z,51.97
2023-05-15T02:42:56.787Z,57.00
2023-05-15T02:45:25.981Z,53.93
2023-05-15T02:47:56.124Z,67.37
2023-05-15T02:50:24.569Z,61.50
2023-05-15T02:52:52.821Z,59.80
2023-05-15T02:55:21.112Z,55.03
2023-05-15T02:57:49.275Z,62.70
2023-05-15T03:00:17.625Z,31.87
2023-05-15T03:02:46.092Z,34.70
2023-05-15T03:05:15.702Z,54.80
2023-05-15T03:07:43.975Z,56.10
2023-05-15T03:10:12.315Z,71.50
2023-05-15T03:12:40.871Z,43.50
2023-05-15T03:15:09.401Z,61.43
2023-05-15T03:17:37.853Z,63.43
2023-05-15T03:20:06.503Z,70.97
2023-05-15T03:22:36.385Z,66.30
2023-05-15T03:25:04.646Z,67.60
2023-05-15T03:27:32.866Z,67.50
2023-05-15T03:30:01.204Z,68.90
2023-05-15T03:32:29.465Z,76.33
2023-05-15T03:34:57.687Z,61.20
2023-05-15T03:37:25.948Z,62.23
2023-05-15T03:39:55.492Z,66.47
2023-05-15T03:42:24.896Z,60.03
2023-05-15T03:44:53.187Z,80.50
2023-05-15T03:47:21.471Z,63.50
2023-05-15T03:49:49.744Z,74.93
2023-05-15T03:52:18.023Z,67.30
2023-05-15T03:54:46.266Z,75.47
2023-05-15T03:57:15.846Z,64.63
2023-05-15T03:59:44.089Z,75.13
2023-05-15T04:02:12.385Z,63.40
2023-05-15T04:04:40.796Z,82.27
2023-05-15T04:07:09.049Z,73.67
2023-05-15T04:09:37.397Z,66.87
2023-05-15T04:12:05.953Z,66.93
2023-05-15T04:14:35.579Z,70.10
2023-05-15T04:17:03.804Z,74.40
2023-05-15T04:19:32.103Z,78.90
2023-05-15T04:22:00.290Z,80.37
2023-05-15T04:24:28.480Z,69.97
2023-05-15T04:26:56.711Z,79.37
2023-05-15T04:29:24.950Z,82.87
2023-05-15T04:31:54.566Z,78.33
2023-05-15T04:34:22.859Z,69.17
2023-05-15T04:36:51.173Z,80.50
2023-05-15T04:39:19.420Z,84.20
2023-05-15T04:41:47.631Z,75.57
2023-05-15T04:44:16.890Z,81.43
2023-05-15T04:46:45.270Z,53.73
2023-05-15T04:49:14.817Z,82.93
2023-05-15T04:51:43.368Z,62.20
2023-05-15T04:54:11.565Z,72.10
2023-05-15T04:56:39.766Z,47.57
2023-05-15T04:59:08.057Z,88.63
2023-05-15T05:01:36.750Z,48.10
2023-05-15T05:04:05.093Z,61.27
2023-05-15T05:06:34.692Z,71.47
2023-05-15T05:09:03.226Z,72.03
2023-05-15T05:11:31.473Z,60.07
2023-05-15T05:14:01.667Z,76.43
2023-05-15T05:16:29.926Z,60.13
2023-05-15T05:18:58.320Z,43.13
2023-05-15T05:21:26.713Z,63.50
2023-05-15T05:23:56.248Z,67.03
2023-05-15T05:26:24.441Z,60.73
2023-05-15T05:28:52.680Z,64.17
2023-05-15T05:31:21.113Z,68.00
2023-05-15T05:33:51.738Z,57.50
2023-05-15T05:36:20.080Z,45.00
2023-05-15T05:38:48.285Z,64.53
2023-05-15T05:41:17.859Z,61.13
2023-05-15T05:43:46.051Z,68.40
2023-05-15T05:46:14.271Z,61.70
2023-05-15T05:48:42.605Z,67.00
2023-05-15T05:51:10.848Z,57.30
2023-05-15T05:53:39.675Z,48.47
2023-05-15T05:56:08.223Z,68.70
2023-05-15T05:58:37.811Z,65.87
2023-05-15T06:01:06.230Z,70.43
2023-05-15T06:03:35.012Z,71.77
2023-05-15T06:06:03.410Z,57.53
2023-05-15T06:08:31.924Z,68.57
2023-05-15T06:11:00.149Z,62.10
2023-05-15T06:13:28.957Z,65.63
2023-05-15T06:15:58.521Z,70.27
2023-05-15T06:18:26.745Z,67.73
2023-05-15T06:20:54.926Z,66.47
2023-05-15T06:23:24.373Z,58.50
2023-05-15T06:25:52.744Z,62.33
2023-05-15T06:28:20.953Z,79.83
2023-05-15T06:30:49.295Z,56.50
2023-05-15T06:33:19.094Z,65.70
2023-05-15T06:35:47.469Z,56.90
2023-05-15T06:38:15.749Z,47.13
2023-05-15T06:40:43.984Z,55.37
2023-05-15T06:43:12.261Z,49.97
2023-05-15T06:45:40.613Z,48.47
2023-05-15T06:48:09.213Z,45.73
2023-05-15T06:50:38.805Z,62.00
2023-05-15T06:53:06.990Z,41.50
2023-05-15T06:55:36.518Z,67.13
2023-05-15T06:58:04.794Z,75.07
2023-05-15T07:00:33.087Z,64.80
2023-05-15T07:03:01.369Z,67.10
2023-05-15T07:05:29.654Z,70.80
2023-05-15T07:07:59.174Z,59.90
2023-05-15T07:10:27.567Z,57.10
2023-05-15T07:12:56.300Z,59.53
2023-05-15T07:15:24.585Z,60.17
2023-05-15T07:17:52.819Z,62.47
2023-05-15T07:20:21.097Z,64.63
2023-05-15T07:22:56.449Z,56.50
2023-05-15T07:25:26.792Z,56.10
2023-05-15T07:27:55.190Z,60.70
2023-05-15T07:30:23.873Z,46.97
2023-05-15T07:32:52.362Z,56.40
2023-05-15T07:35:20.722Z,54.67
2023-05-15T07:37:49.077Z,47.97
2023-05-15T07:40:17.321Z,57.93
2023-05-15T07:42:47.022Z,50.73
2023-05-15T07:45:15.435Z,45.33
2023-05-15T07:47:47.457Z,41.40
2023-05-15T07:50:15.840Z,44.83
2023-05-15T07:52:44.352Z,45.40
2023-05-15T07:55:12.756Z,41.73
2023-05-15T07:57:41.271Z,43.63
2023-05-15T08:00:13.502Z,35.53
2023-05-15T08:02:42.761Z,48.90
2023-05-15T08:05:11.321Z,37.20
2023-05-15T08:07:39.570Z,34.80
2023-05-15T08:10:08.520Z,38.93
2023-05-15T08:12:36.815Z,35.80
2023-05-15T08:15:05.317Z,36.70
2023-05-15T08:17:34.919Z,35.37
2023-05-15T08:20:03.176Z,37.17
2023-05-15T08:22:31.441Z,37.90
2023-05-15T08:25:03.703Z,32.57
2023-05-15T08:27:31.944Z,32.10
2023-05-15T08:30:00.313Z,38.13
2023-05-15T08:32:28.551Z,27.27
2023-05-15T08:34:58.738Z,29.30
2023-05-15T08:37:26.945Z,35.80
2023-05-15T08:39:55.133Z,41.70
2023-05-15T08:42:27.570Z,34.77
2023-05-15T08:44:55.940Z,35.97
2023-05-15T08:47:24.710Z,30.70
2023-05-15T08:49:58.674Z,31.10
2023-05-15T08:52:28.600Z,30.37
2023-05-15T08:54:56.901Z,32.20
2023-05-15T08:57:25.294Z,34.13
2023-05-15T08:59:54.533Z,28.93
2023-05-15T09:02:23.229Z,31.03
2023-05-15T09:04:51.518Z,29.03
2023-05-15T09:07:20.097Z,29.67
2023-05-15T09:09:49.724Z,27.53
2023-05-15T09:12:18.591Z,33.67
2023-05-15T09:14:47.261Z,26.53
2023-05-15T09:17:16.580Z,28.30
2023-05-15T09:19:44.799Z,28.00
2023-05-15T09:22:17.774Z,30.07
2023-05-15T09:24:48.129Z,35.00
2023-05-15T09:27:19.236Z,30.20
2023-05-15T09:29:47.850Z,25.47
2023-05-15T09:32:16.650Z,22.63
2023-05-15T09:34:45.842Z,23.97
2023-05-15T09:37:28.878Z,25.73
2023-05-15T09:39:57.256Z,24.00
2023-05-15T09:42:26.820Z,24.23
2023-05-15T09:44:55.073Z,31.67
2023-05-15T09:47:23.939Z,26.90
2023-05-15T09:49:52.652Z,30.20
2023-05-15T09:52:23.190Z,22.17
2023-05-15T09:54:51.542Z,29.33
2023-05-15T09:57:23.183Z,25.80
2023-05-15T09:59:52.872Z,22.33
2023-05-15T10:02:24.657Z,23.53
2023-05-15T10:04:56.045Z,29.73
2023-05-15T10:07:31.311Z,24.40
2023-05-15T10:09:59.591Z,22.43
2023-05-15T10:12:28.294Z,17.10
2023-05-15T10:14:58.926Z,24.10
2023-05-15T10:17:27.748Z,33.63
2023-05-15T10:19:59.035Z,31.33
2023-05-15T10:22:30.712Z,24.10
2023-05-15T10:25:02.154Z,20.97
2023-05-15T10:27:30.901Z,32.53
2023-05-15T10:30:01.510Z,28.23
2023-05-15T10:32:29.841Z,32.70
2023-05-15T10:34:59.001Z,22.90
2023-05-15T10:37:27.644Z,21.70
2023-05-15T10:39:56.989Z,25.63
2023-05-15T10:42:26.479Z,22.57
2023-05-15T10:44:59.858Z,20.97
2023-05-15T10:47:29.861Z,34.00
2023-05-15T10:49:58.432Z,20.57
2023-05-15T10:52:26.797Z,21.20
2023-05-15T10:54:56.738Z,19.37
2023-05-15T10:57:25.100Z,15.47
2023-05-15T10:59:53.303Z,16.37
2023-05-15T11:02:23.226Z,25.00
2023-05-15T11:04:57.328Z,27.30
2023-05-15T11:07:25.777Z,23.60
2023-05-15T11:09:54.081Z,20.63
2023-05-15T11:12:22.438Z,23.50
2023-05-15T11:15:09.200Z,22.60
2023-05-15T11:17:37.515Z,17.20
2023-05-15T11:20:07.670Z,30.87
2023-05-15T11:22:36.986Z,17.57
2023-05-15T11:25:06.274Z,17.20
2023-05-15T11:27:35.117Z,17.10
2023-05-15T11:30:06.872Z,17.47
2023-05-15T11:32:42.329Z,29.37
2023-05-15T11:35:13.174Z,22.57
2023-05-15T11:37:44.430Z,21.70
2023-05-15T11:40:15.527Z,31.40
2023-05-15T11:42:43.716Z,30.17
2023-05-15T11:45:12.700Z,21.30
2023-05-15T11:47:45.308Z,18.80
2023-05-15T11:50:15.167Z,26.63
2023-05-15T11:52:43.414Z,20.00
2023-05-15T11:55:12.078Z,16.87
2023-05-15T11:57:40.370Z,21.07
2023-05-15T12:00:10.082Z,31.70
2023-05-15T12:02:38.381Z,21.70
2023-05-15T12:05:08.862Z,20.83
2023-05-15T12:07:39.658Z,19.83
2023-05-15T12:10:08.712Z,30.93
2023-05-15T12:12:37.444Z,25.10
2023-05-15T12:15:06.059Z,23.87
2023-05-15T12:17:34.308Z,23.37
2023-05-15T12:20:02.634Z,26.70
2023-05-15T12:22:30.885Z,37.13
2023-05-15T12:25:01.536Z,36.30
2023-05-15T12:27:29.974Z,29.60
2023-05-15T12:29:58.292Z,30.57
2023-05-15T12:32:27.701Z,19.07
2023-05-15T12:34:56.214Z,35.93
2023-05-15T12:37:24.423Z,27.47
2023-05-15T12:39:53.592Z,22.33
2023-05-15T12:42:26.040Z,33.90
2023-05-15T12:44:54.530Z,37.93
2023-05-15T12:47:25.764Z,37.10
2023-05-15T12:49:56.974Z,34.30
2023-05-15T12:52:26.900Z,33.53
2023-05-15T12:54:55.123Z,32.20
2023-05-15T12:57:24.717Z,23.03
2023-05-15T12:59:53.350Z,23.00
2023-05-15T13:02:23.281Z,26.37
2023-05-15T13:04:52.820Z,28.90
2023-05-15T13:07:21.041Z,23.50
2023-05-15T13:10:03.425Z,27.93
2023-05-15T13:12:38.284Z,23.27
2023-05-15T13:15:07.146Z,16.57
2023-05-15T13:17:36.092Z,29.33
2023-05-15T13:20:05.657Z,23.93
2023-05-15T13:22:33.907Z,29.77
2023-05-15T13:25:02.131Z,31.23
2023-05-15T13:27:30.454Z,26.93
2023-05-15T13:29:59.982Z,43.13
2023-05-15T13:32:28.401Z,36.40
2023-05-15T13:34:58.690Z,43.60
2023-05-15T13:37:27.397Z,40.80
2023-05-15T13:39:55.676Z,26.10
2023-05-15T13:42:23.968Z,17.70
2023-05-15T13:44:52.209Z,34.13
2023-05-15T13:47:21.774Z,26.87
2023-05-15T13:49:49.931Z,28.63
2023-05-15T13:52:18.136Z,34.90
2023-05-15T13:54:46.385Z,20.83
2023-05-15T13:57:14.688Z,28.87
2023-05-15T13:59:42.997Z,25.37
2023-05-15T14:02:11.232Z,27.17
2023-05-15T14:04:40.881Z,36.17
2023-05-15T14:07:09.138Z,28.90
2023-05-15T14:09:37.290Z,28.33
2023-05-15T14:12:05.689Z,23.50
2023-05-15T14:14:33.955Z,28.30
2023-05-15T14:17:02.230Z,27.30
2023-05-15T14:19:30.450Z,22.43
2023-05-15T14:22:01.195Z,24.83
2023-05-15T14:24:29.360Z,25.13
2023-05-15T14:26:57.609Z,23.50
2023-05-15T14:29:25.928Z,22.23
2023-05-15T14:31:54.179Z,19.53
2023-05-15T14:34:23.473Z,22.93
2023-05-15T14:36:51.826Z,24.37
2023-05-15T14:39:21.346Z,26.50
2023-05-15T14:41:49.711Z,24.70
2023-05-15T14:44:17.955Z,21.90
2023-05-15T14:46:46.328Z,25.30
2023-05-15T14:49:14.815Z,19.10
2023-05-15T14:51:43.037Z,13.17
2023-05-15T14:54:11.205Z,24.97
2023-05-15T14:56:40.778Z,24.43
2023-05-15T14:59:09.002Z,20.47
2023-05-15T15:01:37.240Z,30.30
2023-05-15T15:04:06.133Z,24.47
2023-05-15T15:06:34.585Z,26.93
2023-05-15T15:09:02.857Z,19.47
2023-05-15T15:11:31.084Z,27.87
2023-05-15T15:14:00.989Z,21.60
2023-05-15T15:16:29.218Z,22.80
2023-05-15T15:18:57.573Z,25.03
2023-05-15T15:21:25.971Z,21.27
2023-05-15T15:23:54.702Z,23.37
2023-05-15T15:26:23.177Z,19.87
2023-05-15T15:28:51.574Z,29.80
2023-05-15T15:31:21.297Z,27.47
2023-05-15T15:33:49.609Z,19.03
2023-05-15T15:36:17.843Z,24.73
2023-05-15T15:38:47.524Z,21.10
2023-05-15T15:41:15.787Z,21.37
2023-05-15T15:43:43.959Z,24.23
2023-05-15T15:46:12.205Z,22.83
2023-05-15T15:48:41.809Z,9.83
2023-05-15T15:51:10.054Z,34.03
2023-05-15T15:53:38.251Z,25.10
2023-05-15T15:56:06.709Z,22.07
2023-05-15T15:58:34.976Z,21.77
2023-05-15T16:01:03.637Z,22.17
2023-05-15T16:03:32.098Z,26.97
2023-05-15T16:06:01.931Z,25.10
2023-05-15T16:08:30.192Z,20.67
2023-05-15T16:10:58.397Z,25.37
2023-05-15T16:13:26.620Z,29.30
2023-05-15T16:15:55.930Z,19.47
2023-05-15T16:18:24.173Z,25.70
2023-05-15T16:20:52.429Z,33.33
2023-05-15T16:23:21.968Z,23.70
2023-05-15T16:25:50.228Z,28.63
2023-05-15T16:28:18.510Z,26.13
2023-05-15T16:30:49.787Z,26.10
2023-05-15T16:33:25.639Z,33.87
2023-05-15T16:35:53.951Z,37.93
2023-05-15T16:38:23.690Z,60.50
2023-05-15T16:40:52.110Z,49.93
2023-05-15T16:43:21.983Z,57.07
2023-05-15T16:45:50.390Z,59.50
2023-05-15T16:48:18.688Z,28.83
2023-05-15T16:50:47.054Z,46.70
2023-05-15T16:53:15.907Z,37.60
2023-05-15T16:55:46.852Z,38.17
2023-05-15T16:58:15.291Z,40.57
2023-05-15T17:00:43.852Z,33.03
2023-05-15T17:03:12.825Z,34.97
2023-05-15T17:05:41.132Z,34.23
2023-05-15T17:08:09.355Z,30.70
2023-05-15T17:10:38.488Z,29.63
2023-05-15T17:13:08.342Z,29.53
2023-05-15T17:15:36.607Z,25.50
2023-05-15T17:18:04.938Z,24.57
2023-05-15T17:20:33.172Z,21.10
2023-05-15T17:23:01.422Z,18.83
2023-05-15T17:25:29.704Z,19.53
2023-05-15T17:27:58.913Z,25.80
2023-05-15T17:30:28.487Z,22.40
2023-05-15T17:32:56.870Z,25.50
2023-05-15T17:35:25.478Z,21.97
2023-05-15T17:37:53.877Z,28.93
2023-05-15T17:40:23.245Z,22.43
2023-05-15T17:42:51.481Z,22.53
2023-05-15T17:45:21.021Z,21.07
2023-05-15T17:47:50.603Z,23.13
2023-05-15T17:50:18.852Z,17.67
2023-05-15T17:52:47.039Z,20.97
2023-05-15T17:55:15.276Z,21.50
2023-05-15T17:57:43.421Z,20.90
2023-05-15T18:00:12.612Z,23.77
2023-05-15T18:02:40.889Z,16.07
2023-05-15T18:05:10.795Z,20.23
2023-05-15T18:07:39.044Z,17.30
2023-05-15T18:10:08.020Z,19.43
2023-05-15T18:12:36.253Z,18.97
2023-05-15T18:15:04.771Z,22.60
2023-05-15T18:17:32.964Z,16.63
2023-05-15T18:20:01.750Z,20.57
2023-05-15T18:22:31.269Z,10.20
2023-05-15T18:24:59.589Z,14.20
2023-05-15T18:27:28.467Z,16.13
2023-05-15T18:29:56.971Z,27.23
2023-05-15T18:32:25.293Z,23.27
2023-05-15T18:34:53.615Z,16.00
2023-05-15T18:37:22.131Z,18.77
2023-05-15T18:39:52.067Z,24.00
2023-05-15T18:42:20.378Z,17.67
2023-05-15T18:44:48.674Z,18.33
2023-05-15T18:47:16.950Z,19.07
2023-05-15T18:49:45.150Z,14.80
2023-05-15T18:52:13.628Z,13.10
2023-05-15T18:54:42.280Z,11.77
2023-05-15T18:57:14.145Z,14.70
2023-05-15T18:59:42.504Z,17.33
2023-05-15T19:02:10.807Z,14.40
2023-05-15T19:04:39.024Z,21.57
2023-05-15T19:07:07.481Z,17.87
2023-05-15T19:09:36.127Z,14.57
2023-05-15T19:12:05.233Z,13.13
2023-05-15T19:14:35.177Z,20.10
2023-05-15T19:17:03.425Z,17.07
2023-05-15T19:19:31.848Z,14.20
2023-05-15T19:22:00.123Z,16.37
2023-05-15T19:24:28.352Z,12.40
2023-05-15T19:26:56.614Z,10.73
2023-05-15T19:29:24.887Z,12.50
2023-05-15T19:31:55.112Z,14.53
2023-05-15T19:34:23.700Z,12.83
2023-05-15T19:36:51.908Z,14.80
2023-05-15T19:39:20.193Z,13.17
2023-05-15T19:41:48.548Z,15.13
2023-05-15T19:44:16.791Z,12.67
2023-05-15T19:46:46.543Z,10.00
2023-05-15T19:49:16.139Z,10.93
2023-05-15T19:51:44.363Z,10.87
2023-05-15T19:54:12.537Z,12.80
2023-05-15T19:56:41.031Z,14.93
2023-05-15T19:59:11.755Z,8.80
2023-05-15T20:01:40.043Z,12.77
2023-05-15T20:04:08.321Z,14.23
2023-05-15T20:06:38.212Z,18.33
2023-05-15T20:09:06.543Z,12.70
2023-05-15T20:11:34.872Z,15.63
2023-05-15T20:14:03.141Z,11.03
2023-05-15T20:16:31.475Z,11.40
2023-05-15T20:18:59.892Z,15.80
2023-05-15T20:21:28.296Z,12.13
2023-05-15T20:23:57.980Z,16.50
2023-05-15T20:26:31.317Z,8.67
2023-05-15T20:28:59.585Z,9.63
2023-05-15T20:31:27.914Z,11.80
2023-05-15T20:33:57.268Z,8.50
2023-05-15T20:36:26.157Z,9.23
2023-05-15T20:38:55.051Z,10.03
2023-05-15T20:41:33.860Z,12.40
2023-05-15T20:44:02.124Z,10.57
2023-05-15T20:46:30.731Z,9.43
2023-05-15T20:48:59.354Z,7.00
2023-05-15T20:51:27.682Z,6.80
2023-05-15T20:53:56.105Z,9.07
2023-05-15T20:56:25.651Z,12.37
2023-05-15T20:58:56.396Z,7.23
2023-05-15T21:01:27.074Z,7.67
2023-05-15T21:03:55.335Z,10.37
2023-05-15T21:06:23.614Z,8.53
2023-05-15T21:08:52.070Z,9.90
2023-05-15T21:11:20.252Z,8.80
2023-05-15T21:13:48.640Z,9.30
2023-05-15T21:16:18.258Z,5.10
2023-05-15T21:18:48.684Z,7.50
2023-05-15T21:21:16.951Z,8.20
2023-05-15T21:23:45.942Z,6.47
2023-05-15T21:26:14.211Z,9.43
2023-05-15T21:28:42.451Z,12.07
2023-05-15T21:31:10.991Z,7.90
2023-05-15T21:33:41.246Z,6.70
2023-05-15T21:36:09.671Z,6.13
2023-05-15T21:38:37.932Z,6.90
2023-05-15T21:41:06.301Z,7.53
2023-05-15T21:43:34.675Z,4.37
2023-05-15T21:46:03.370Z,6.60
2023-05-15T21:48:31.677Z,7.47
2023-05-15T21:51:01.237Z,7.77
2023-05-15T21:53:29.407Z,6.83
2023-05-15T21:55:59.976Z,13.37
2023-05-15T21:58:28.172Z,12.17
2023-05-15T22:00:56.477Z,9.33
2023-05-15T22:03:24.999Z,6.40
2023-05-15T22:05:53.382Z,7.03
2023-05-15T22:08:23.147Z,7.80
2023-05-15T22:10:51.442Z,7.27
2023-05-15T22:13:19.653Z,8.50
2023-05-15T22:15:47.875Z,10.57
2023-05-15T22:18:16.184Z,9.77
2023-05-15T22:20:45.033Z,7.20
2023-05-15T22:23:13.229Z,7.90
2023-05-15T22:25:42.752Z,7.47
2023-05-15T22:28:10.985Z,4.97
2023-05-15T22:30:39.199Z,6.17
2023-05-15T22:33:07.495Z,6.00
2023-05-15T22:35:35.732Z,5.90
2023-05-15T22:38:05.637Z,6.57
2023-05-15T22:40:33.833Z,7.67
2023-05-15T22:43:03.913Z,6.73
2023-05-15T22:45:32.219Z,5.40
2023-05-15T22:48:01.836Z,9.03
2023-05-15T22:50:30.028Z,5.40
2023-05-15T22:52:58.277Z,5.77
2023-05-15T22:55:27.108Z,4.90
2023-05-15T22:57:55.380Z,7.53
2023-05-15T23:00:25.269Z,4.90
2023-05-15T23:02:55.279Z,5.27
2023-05-15T23:05:24.861Z,6.13
2023-05-15T23:07:53.287Z,8.37
2023-05-15T23:10:21.669Z,5.50
2023-05-15T23:12:50.501Z,12.63
2023-05-15T23:15:18.781Z,8.40
2023-05-15T23:17:48.475Z,6.53
2023-05-15T23:20:16.791Z,5.60
2023-05-15T23:22:44.969Z,7.70
2023-05-15T23:25:13.209Z,8.10
2023-05-15T23:27:41.467Z,6.33
2023-05-15T23:30:10.777Z,6.50
2023-05-15T23:32:39.062Z,5.70
2023-05-15T23:35:09.142Z,6.53
2023-05-15T23:37:37.305Z,4.93
2023-05-15T23:40:06.010Z,5.37
2023-05-15T23:42:34.265Z,8.40
2023-05-15T23:45:03.151Z,7.00
2023-05-15T23:47:31.452Z,7.93
2023-05-15T23:49:59.737Z,7.47
2023-05-15T23:52:29.262Z,7.10
2023-05-15T23:54:57.489Z,4.50
2023-05-15T23:57:25.777Z,5.70
2023-05-15T23:59:53.958Z,4.97
